Time;durP1;ratioP1;P1;durP2;ratioP2;P2;SDS_P1;SDS_P2;PMS_P1;PMS_P2;Temp;Humidity;BMP_temperature;BMP_pressure;BME280_temperature;BME280_humidity;BME280_pressure;Samples;Min_cycle;Max_cycle;Signal;HPM_P1;HPM_P2
2021/05/28 00:01:51;;;;;;;1.00;0.28;;;13.40;97.10;;;;;;5057819;28;20390;-90
2021/05/28 00:04:18;;;;;;;1.13;0.40;;;13.30;96.00;;;;;;5040802;28;20392;-89
2021/05/28 00:06:45;;;;;;;1.80;0.60;;;13.20;96.50;;;;;;5058560;28;20442;-90
2021/05/28 00:09:12;;;;;;;0.90;0.40;;;13.20;96.40;;;;;;5058186;28;20375;-90
2021/05/28 00:11:40;;;;;;;1.00;0.30;;;13.20;96.80;;;;;;5059222;28;20523;-91
2021/05/28 00:14:07;;;;;;;1.90;0.55;;;13.30;94.60;;;;;;5061032;28;20380;-86
2021/05/28 00:16:35;;;;;;;0.95;0.38;;;13.40;95.30;;;;;;5055025;28;20419;-87
2021/05/28 00:19:02;;;;;;;0.60;0.38;;;13.50;96.00;;;;;;5060402;28;20376;-86
2021/05/28 00:21:30;;;;;;;1.23;0.38;;;13.70;96.00;;;;;;5038384;28;20405;-89
2021/05/28 00:23:57;;;;;;;3.80;0.30;;;13.70;94.30;;;;;;5029511;28;20423;-89
2021/05/28 00:26:24;;;;;;;1.70;0.30;;;13.70;93.80;;;;;;5039465;28;20442;-92
2021/05/28 00:28:51;;;;;;;1.40;0.30;;;13.60;95.10;;;;;;5065395;28;20402;-86
2021/05/28 00:31:19;;;;;;;1.20;0.35;;;13.60;94.60;;;;;;5059867;28;20387;-89
2021/05/28 00:33:47;;;;;;;1.05;0.20;;;13.60;94.30;;;;;;5055518;28;20378;-90
2021/05/28 00:36:14;;;;;;;2.42;0.40;;;13.60;94.00;;;;;;5054828;28;20455;-85
2021/05/28 00:38:41;;;;;;;3.60;0.30;;;13.50;93.90;;;;;;5058326;28;20383;-90
2021/05/28 00:41:08;;;;;;;1.30;0.40;;;13.50;93.20;;;;;;5039388;28;20398;-87
2021/05/28 00:43:35;;;;;;;2.53;0.50;;;13.50;93.70;;;;;;5058152;28;20379;-88
2021/05/28 00:46:03;;;;;;;1.52;0.30;;;13.50;93.90;;;;;;5057710;28;20404;-89
2021/05/28 00:48:30;;;;;;;1.80;0.30;;;13.50;93.40;;;;;;5056302;28;21068;-87
2021/05/28 00:50:57;;;;;;;1.65;0.40;;;13.60;93.80;;;;;;5059045;28;20384;-86
2021/05/28 00:53:26;;;;;;;0.90;0.30;;;13.60;93.20;;;;;;5058374;28;20871;-87
2021/05/28 00:55:54;;;;;;;1.75;0.40;;;13.70;93.80;;;;;;5054447;28;20384;-91
2021/05/28 00:58:21;;;;;;;2.55;0.40;;;13.80;92.70;;;;;;5046518;28;20419;-88
2021/05/28 01:00:49;;;;;;;1.35;0.20;;;13.80;92.30;;;;;;5055200;28;20873;-88
2021/05/28 01:03:16;;;;;;;0.90;0.40;;;13.90;92.80;;;;;;5057450;28;20420;-90
2021/05/28 01:05:45;;;;;;;3.95;0.57;;;13.90;93.30;;;;;;5060889;28;20402;-88
2021/05/28 01:08:13;;;;;;;0.75;0.47;;;13.90;92.00;;;;;;5061006;28;20412;-89
2021/05/28 01:10:40;;;;;;;0.90;0.20;;;14.00;90.50;;;;;;5040641;28;20949;-90
2021/05/28 01:13:10;;;;;;;1.30;0.30;;;14.00;88.20;;;;;;5022609;28;20381;-87
2021/05/28 01:15:37;;;;;;;2.20;0.50;;;14.00;89.70;;;;;;5056888;28;20376;-89
2021/05/28 01:18:05;;;;;;;2.10;0.30;;;14.00;87.70;;;;;;5062193;28;20462;-90
2021/05/28 01:20:32;;;;;;;2.85;0.50;;;14.00;87.60;;;;;;5060234;28;20372;-88
2021/05/28 01:23:01;;;;;;;3.42;0.50;;;14.00;87.60;;;;;;5057873;28;20453;-90
2021/05/28 01:25:29;;;;;;;0.70;0.40;;;14.00;87.80;;;;;;5030267;28;20467;-87
2021/05/28 01:27:56;;;;;;;1.05;0.30;;;14.00;85.20;;;;;;5060509;28;20415;-89
2021/05/28 01:30:25;;;;;;;1.23;0.30;;;14.00;85.40;;;;;;5060642;28;20376;-92
2021/05/28 01:32:53;;;;;;;0.98;0.50;;;14.10;84.80;;;;;;5060304;28;20468;-90
2021/05/28 01:35:20;;;;;;;2.20;0.50;;;14.10;86.60;;;;;;5059728;28;20445;-89
2021/05/28 01:37:48;;;;;;;2.17;0.40;;;14.10;84.50;;;;;;5060421;28;20798;-89
2021/05/28 01:40:16;;;;;;;2.25;0.38;;;14.20;83.30;;;;;;5059539;28;20380;-88
2021/05/28 01:42:43;;;;;;;4.32;0.40;;;14.20;84.40;;;;;;5044534;28;20436;-89
2021/05/28 01:45:10;;;;;;;1.97;0.37;;;14.30;84.40;;;;;;5055141;28;20383;-88
2021/05/28 01:47:37;;;;;;;0.98;0.47;;;14.40;82.20;;;;;;5061081;28;20399;-88
2021/05/28 01:50:08;;;;;;;1.38;0.40;;;14.40;81.80;;;;;;5060361;28;20372;-88
2021/05/28 01:52:35;;;;;;;1.10;0.30;;;14.40;83.50;;;;;;5059793;28;20378;-88
2021/05/28 01:55:04;;;;;;;0.60;0.20;;;14.30;81.60;;;;;;5068009;28;20372;-87
2021/05/28 01:57:31;;;;;;;0.90;0.30;;;14.30;81.60;;;;;;5068239;28;20426;-88
2021/05/28 01:59:59;;;;;;;0.35;0.30;;;14.30;81.20;;;;;;5062455;28;20430;-90
2021/05/28 02:02:26;;;;;;;1.48;0.30;;;14.30;79.70;;;;;;5056331;28;20441;-93
2021/05/28 02:04:53;;;;;;;0.77;0.35;;;14.40;80.40;;;;;;5064279;28;20376;-87
2021/05/28 02:07:19;;;;;;;1.13;0.40;;;14.40;78.20;;;;;;5062043;28;20415;-90
2021/05/28 02:09:47;;;;;;;0.80;0.20;;;14.30;75.80;;;;;;5060556;28;20406;-88
2021/05/28 02:12:15;;;;;;;0.57;0.30;;;14.30;78.40;;;;;;5062546;28;20486;-88
2021/05/28 02:14:42;;;;;;;1.30;0.30;;;14.30;77.60;;;;;;5069056;28;20422;-87
2021/05/28 02:17:10;;;;;;;2.20;0.50;;;14.20;77.20;;;;;;5059980;28;20393;-90
2021/05/28 02:19:37;;;;;;;0.93;0.20;;;14.20;78.70;;;;;;5045912;28;20444;-89
2021/05/28 02:22:10;;;;;;;2.07;0.30;;;14.20;78.40;;;;;;5072810;28;20462;-90
2021/05/28 02:24:37;;;;;;;2.35;0.70;;;14.30;76.40;;;;;;5058865;28;20396;-88
2021/05/28 02:27:05;;;;;;;0.87;0.40;;;14.30;78.30;;;;;;5064421;28;20400;-91
2021/05/28 02:29:32;;;;;;;2.38;0.32;;;14.30;77.00;;;;;;5057548;28;20423;-87
2021/05/28 02:31:59;;;;;;;4.47;0.50;;;14.30;77.80;;;;;;5057799;28;20463;-89
2021/05/28 02:34:25;;;;;;;0.67;0.43;;;14.30;73.50;;;;;;5057403;28;20440;-90
2021/05/28 02:36:52;;;;;;;1.40;0.40;;;14.30;74.20;;;;;;5037771;28;20453;-88
2021/05/28 02:39:19;;;;;;;1.40;0.50;;;14.30;77.20;;;;;;5045131;28;20398;-90
2021/05/28 02:41:46;;;;;;;1.13;0.60;;;14.30;73.90;;;;;;5058099;28;20379;-88
2021/05/28 02:44:13;;;;;;;1.00;0.35;;;14.30;75.90;;;;;;5055615;28;20385;-84
2021/05/28 02:46:40;;;;;;;1.80;0.40;;;14.40;74.00;;;;;;5055760;28;20403;-91
2021/05/28 02:49:08;;;;;;;2.20;0.50;;;14.40;71.00;;;;;;5047686;28;20368;-87
2021/05/28 02:51:38;;;;;;;1.80;0.38;;;14.40;74.50;;;;;;5039128;28;20384;-86
2021/05/28 02:54:05;;;;;;;2.50;0.30;;;14.40;72.40;;;;;;5058817;28;20385;-89
2021/05/28 02:56:32;;;;;;;2.03;0.40;;;14.50;75.30;;;;;;5058594;28;20422;-88
2021/05/28 02:58:59;;;;;;;1.33;0.52;;;14.40;74.20;;;;;;5060300;28;20379;-89
2021/05/28 03:01:26;;;;;;;0.25;0.20;;;14.40;71.80;;;;;;5050685;28;20400;-90
2021/05/28 03:03:53;;;;;;;1.00;0.40;;;14.40;72.90;;;;;;5058615;28;20383;-92
2021/05/28 03:06:20;;;;;;;1.73;0.47;;;14.40;73.80;;;;;;5049060;28;20473;-92
2021/05/28 03:08:47;;;;;;;2.00;0.28;;;14.40;72.00;;;;;;5038951;28;20404;-91
2021/05/28 03:11:14;;;;;;;2.50;0.30;;;14.50;72.30;;;;;;5027057;28;20849;-87
2021/05/28 03:13:41;;;;;;;4.25;0.35;;;14.50;72.10;;;;;;5037139;28;20370;-89
2021/05/28 03:16:07;;;;;;;1.00;0.30;;;14.50;71.00;;;;;;5018684;28;20406;-91
2021/05/28 03:18:46;;;;;;;2.00;0.40;;;14.50;73.20;;;;;;5020901;28;20402;-88
2021/05/28 03:23:51;;;;;;;1.58;0.30;;;14.60;72.50;;;;;;5044182;28;20456;-88
2021/05/28 03:26:18;;;;;;;1.23;0.30;;;14.60;73.50;;;;;;5038719;28;20409;-89
2021/05/28 03:28:45;;;;;;;1.08;0.40;;;14.60;73.50;;;;;;5037480;28;20389;-88
2021/05/28 03:31:13;;;;;;;0.80;0.50;;;14.60;73.80;;;;;;5039534;28;20403;-91
2021/05/28 03:33:40;;;;;;;1.90;0.50;;;14.60;73.20;;;;;;5056418;28;20434;-89
2021/05/28 03:36:08;;;;;;;0.40;0.20;;;14.70;71.80;;;;;;5058676;28;21204;-90
2021/05/28 03:38:35;;;;;;;0.98;0.40;;;14.70;74.90;;;;;;5050661;28;20393;-92
2021/05/28 03:41:03;;;;;;;0.65;0.40;;;14.60;75.10;;;;;;5048003;28;20380;-89
2021/05/28 03:43:30;;;;;;;1.55;0.50;;;14.70;75.90;;;;;;5052362;28;20431;-90
2021/05/28 03:45:57;;;;;;;1.38;0.32;;;14.70;74.60;;;;;;5053456;28;20422;-88
2021/05/28 03:48:24;;;;;;;0.98;0.50;;;14.70;73.00;;;;;;5057811;28;20397;-90
2021/05/28 03:50:51;;;;;;;0.32;0.30;;;14.70;73.60;;;;;;5022029;28;20417;-89
2021/05/28 03:53:18;;;;;;;0.82;0.28;;;14.70;75.50;;;;;;5055712;28;20376;-88
2021/05/28 03:55:46;;;;;;;0.95;0.40;;;14.70;76.30;;;;;;5033922;28;20423;-87
2021/05/28 03:58:13;;;;;;;1.92;0.60;;;14.70;74.20;;;;;;5040546;28;20386;-90
2021/05/28 04:00:40;;;;;;;0.73;0.40;;;14.70;75.50;;;;;;5020303;28;20386;-90
2021/05/28 04:03:07;;;;;;;0.90;0.40;;;14.70;75.80;;;;;;5035391;28;20879;-88
2021/05/28 04:05:34;;;;;;;2.15;0.40;;;14.70;74.00;;;;;;5035522;28;20863;-90
2021/05/28 04:08:02;;;;;;;1.20;0.30;;;14.70;74.70;;;;;;4906268;28;4051357;-91
2021/05/28 04:10:29;;;;;;;2.70;0.30;;;14.70;75.90;;;;;;5040675;28;20372;-90
2021/05/28 04:12:56;;;;;;;1.00;0.30;;;14.80;74.10;;;;;;5056013;28;20399;-87
2021/05/28 04:15:23;;;;;;;1.75;0.50;;;14.80;75.50;;;;;;5070369;28;20401;-92
2021/05/28 04:17:51;;;;;;;1.15;0.43;;;14.70;75.50;;;;;;5053723;28;20384;-90
2021/05/28 04:20:18;;;;;;;1.80;0.50;;;14.70;74.20;;;;;;5035998;28;20392;-88
2021/05/28 04:22:45;;;;;;;1.38;0.40;;;14.70;73.40;;;;;;5044415;28;20418;-84
2021/05/28 04:25:12;;;;;;;2.07;0.30;;;14.70;74.50;;;;;;5050784;28;20393;-86
2021/05/28 04:27:39;;;;;;;2.78;0.45;;;14.70;74.20;;;;;;5055859;28;20407;-89
2021/05/28 04:30:07;;;;;;;1.33;0.50;;;14.60;75.60;;;;;;5039019;28;20387;-87
2021/05/28 04:32:35;;;;;;;1.33;0.30;;;14.50;73.50;;;;;;5057029;28;20379;-92
2021/05/28 04:35:01;;;;;;;1.90;0.40;;;14.50;75.60;;;;;;5038227;28;20490;-87
2021/05/28 04:37:28;;;;;;;0.65;0.25;;;14.40;73.00;;;;;;5056809;28;20413;-92
2021/05/28 04:39:55;;;;;;;1.40;0.40;;;14.40;72.30;;;;;;5021937;28;20423;-88
2021/05/28 04:42:22;;;;;;;1.15;0.32;;;14.30;75.80;;;;;;5055939;28;20483;-88
2021/05/28 04:44:49;;;;;;;1.98;0.40;;;14.40;75.00;;;;;;5037274;28;20466;-88
2021/05/28 04:47:16;;;;;;;1.48;0.50;;;14.30;74.20;;;;;;5050493;28;20410;-88
2021/05/28 04:49:43;;;;;;;1.42;0.50;;;14.30;71.40;;;;;;5051892;28;20886;-86
2021/05/28 04:52:10;;;;;;;2.75;0.52;;;14.30;72.90;;;;;;5039116;28;20392;-86
2021/05/28 04:54:37;;;;;;;3.95;0.40;;;14.30;72.10;;;;;;5032992;28;20388;-91
2021/05/28 04:57:04;;;;;;;1.83;0.40;;;14.20;70.00;;;;;;5054850;28;20400;-89
2021/05/28 04:59:31;;;;;;;1.40;0.30;;;14.20;70.20;;;;;;5049244;28;20382;-86
2021/05/28 05:01:58;;;;;;;1.83;0.50;;;14.00;71.60;;;;;;5052997;28;20390;-85
2021/05/28 05:04:25;;;;;;;2.13;0.50;;;14.00;69.60;;;;;;5046379;28;20375;-89
2021/05/28 05:06:52;;;;;;;2.65;0.50;;;13.90;71.10;;;;;;5043414;28;20420;-86
2021/05/28 05:09:19;;;;;;;0.88;0.30;;;14.00;69.60;;;;;;5050634;28;20974;-90
2021/05/28 05:11:46;;;;;;;1.27;0.40;;;13.90;71.40;;;;;;5030713;28;20414;-89
2021/05/28 05:14:13;;;;;;;1.58;0.65;;;13.90;71.50;;;;;;5050609;28;20397;-87
2021/05/28 05:16:40;;;;;;;1.50;0.30;;;13.90;73.00;;;;;;5039681;28;20389;-89
2021/05/28 05:19:07;;;;;;;1.17;0.30;;;13.80;73.60;;;;;;5040169;28;20388;-90
2021/05/28 05:21:34;;;;;;;1.33;0.32;;;13.80;72.10;;;;;;5055301;28;20403;-86
2021/05/28 05:24:01;;;;;;;2.55;0.40;;;13.70;73.40;;;;;;5039524;28;20909;-85
2021/05/28 05:26:28;;;;;;;2.45;0.50;;;13.70;71.60;;;;;;5055583;28;20423;-89
2021/05/28 05:28:55;;;;;;;1.52;0.40;;;13.60;70.00;;;;;;5057183;28;20391;-91
2021/05/28 05:31:22;;;;;;;1.13;0.30;;;13.60;69.90;;;;;;5035848;28;20386;-86
2021/05/28 05:33:50;;;;;;;1.27;0.40;;;13.60;71.30;;;;;;5047602;28;20393;-87
2021/05/28 05:36:17;;;;;;;2.30;0.40;;;13.60;70.20;;;;;;5034832;28;20454;-88
2021/05/28 05:38:44;;;;;;;1.42;0.45;;;13.50;72.10;;;;;;5057652;28;20422;-85
2021/05/28 05:41:11;;;;;;;1.90;0.65;;;13.50;70.50;;;;;;5055766;28;20401;-86
2021/05/28 05:43:38;;;;;;;2.85;0.50;;;13.60;71.00;;;;;;5056360;28;20380;-89
2021/05/28 05:46:05;;;;;;;1.55;0.40;;;13.50;73.20;;;;;;5056037;28;20411;-90
2021/05/28 05:48:32;;;;;;;2.60;0.60;;;13.40;71.80;;;;;;5055975;28;20490;-90
2021/05/28 05:50:59;;;;;;;2.10;0.40;;;13.40;73.10;;;;;;5037257;28;20386;-83
2021/05/28 05:53:26;;;;;;;0.90;0.30;;;13.30;72.80;;;;;;5054400;28;20392;-88
2021/05/28 05:55:53;;;;;;;1.53;0.50;;;13.20;74.40;;;;;;5034812;28;20395;-87
2021/05/28 05:58:20;;;;;;;2.13;0.43;;;13.20;71.80;;;;;;5042111;28;20459;-89
2021/05/28 06:00:47;;;;;;;0.93;0.40;;;13.20;72.70;;;;;;5019186;28;20421;-90
2021/05/28 06:03:15;;;;;;;1.30;0.43;;;13.10;74.50;;;;;;5049703;28;20542;-88
2021/05/28 06:05:42;;;;;;;1.05;0.45;;;13.00;72.90;;;;;;5033633;28;20898;-92
2021/05/28 06:08:09;;;;;;;2.30;0.43;;;13.00;72.30;;;;;;5056095;28;20426;-91
2021/05/28 06:10:35;;;;;;;2.17;0.50;;;13.00;72.40;;;;;;5051513;28;20375;-90
2021/05/28 06:13:08;;;;;;;2.58;0.60;;;13.10;70.70;;;;;;5051802;28;20426;-88
2021/05/28 06:15:35;;;;;;;1.83;0.30;;;13.10;71.10;;;;;;5054993;28;20398;-87
2021/05/28 06:18:03;;;;;;;0.55;0.40;;;12.90;72.00;;;;;;5050220;28;20392;-88
2021/05/28 06:20:30;;;;;;;2.83;0.75;;;12.90;71.80;;;;;;5029486;28;20388;-91
2021/05/28 06:22:58;;;;;;;2.70;0.68;;;12.80;73.40;;;;;;5044559;28;20827;-90
2021/05/28 06:25:25;;;;;;;2.42;0.50;;;12.90;73.70;;;;;;5043304;28;20405;-89
2021/05/28 06:27:52;;;;;;;4.10;0.75;;;12.80;74.20;;;;;;5048848;28;20689;-85
2021/05/28 06:30:20;;;;;;;4.50;0.90;;;12.80;74.70;;;;;;5037252;28;20393;-86
2021/05/28 06:32:47;;;;;;;2.30;1.00;;;12.70;76.10;;;;;;5044399;28;20394;-89
2021/05/28 06:35:14;;;;;;;6.28;0.60;;;12.60;76.20;;;;;;5036641;28;20888;-88
2021/05/28 06:37:41;;;;;;;1.52;0.75;;;12.50;77.40;;;;;;5037217;28;20389;-89
2021/05/28 06:40:11;;;;;;;4.65;0.90;;;12.30;78.30;;;;;;5038085;28;20390;-91
2021/05/28 06:42:38;;;;;;;4.00;0.70;;;12.20;78.30;;;;;;5022633;28;20521;-86
2021/05/28 06:45:05;;;;;;;4.47;0.80;;;12.20;79.40;;;;;;5042288;28;20483;-85
2021/05/28 06:47:32;;;;;;;4.72;0.95;;;12.20;79.20;;;;;;5056069;28;20403;-88
2021/05/28 06:49:59;;;;;;;4.00;1.20;;;12.10;80.60;;;;;;5034372;28;20887;-87
2021/05/28 06:52:26;;;;;;;2.90;0.82;;;12.10;80.30;;;;;;5052491;28;20377;-90
2021/05/28 06:54:53;;;;;;;4.95;0.90;;;12.00;81.10;;;;;;5056361;28;20379;-86
2021/05/28 06:57:22;;;;;;;3.88;0.90;;;11.90;82.30;;;;;;5056435;28;20374;-85
2021/05/28 06:59:49;;;;;;;3.47;1.00;;;11.80;81.70;;;;;;5049769;28;20389;-87
2021/05/28 07:02:16;;;;;;;3.13;1.10;;;11.80;81.70;;;;;;5046993;28;20403;-87
2021/05/28 07:04:43;;;;;;;5.20;1.00;;;11.80;82.40;;;;;;5053649;28;20380;-90
2021/05/28 07:07:10;;;;;;;5.47;1.20;;;11.70;83.30;;;;;;5050546;28;20411;-85
2021/05/28 07:09:37;;;;;;;4.60;0.93;;;11.60;82.60;;;;;;5052083;28;20895;-92
2021/05/28 07:12:04;;;;;;;3.40;0.90;;;11.70;83.30;;;;;;5050235;28;20438;-88
2021/05/28 07:14:31;;;;;;;4.38;0.80;;;11.60;84.30;;;;;;5043003;28;20402;-90
2021/05/28 07:16:58;;;;;;;5.57;1.20;;;11.40;83.80;;;;;;5033071;28;20492;-86
2021/05/28 07:19:25;;;;;;;3.97;1.20;;;11.30;84.20;;;;;;5060023;28;20388;-90
2021/05/28 07:21:52;;;;;;;4.35;1.30;;;11.30;84.70;;;;;;5056803;28;20923;-86
2021/05/28 07:24:19;;;;;;;5.35;1.40;;;11.30;84.40;;;;;;5054277;28;20475;-89
2021/05/28 07:26:46;;;;;;;7.50;1.20;;;11.20;85.70;;;;;;5051732;28;20408;-88
2021/05/28 07:29:13;;;;;;;3.08;0.98;;;11.10;85.80;;;;;;5048065;28;22023;-87
2021/05/28 07:31:41;;;;;;;5.53;1.00;;;11.10;85.90;;;;;;5052457;28;20398;-90
2021/05/28 07:34:08;;;;;;;3.22;1.10;;;11.00;85.30;;;;;;5035611;28;20388;-84
2021/05/28 07:36:35;;;;;;;3.63;0.90;;;11.00;86.10;;;;;;5055860;28;20388;-85
2021/05/28 07:39:02;;;;;;;3.30;0.93;;;10.90;86.80;;;;;;5052016;28;20731;-90
2021/05/28 07:41:29;;;;;;;2.87;0.83;;;11.00;86.10;;;;;;5041651;28;20364;-88
2021/05/28 07:43:56;;;;;;;11.05;1.02;;;10.90;85.50;;;;;;5061893;28;20406;-90
2021/05/28 07:46:23;;;;;;;4.13;1.13;;;11.00;85.20;;;;;;5060115;28;20392;-91
2021/05/28 07:48:50;;;;;;;3.67;1.08;;;11.00;85.40;;;;;;5057729;28;20403;-87
2021/05/28 07:51:17;;;;;;;2.20;0.88;;;11.00;84.50;;;;;;5056083;28;20399;-88
2021/05/28 07:53:44;;;;;;;3.85;0.90;;;11.00;84.60;;;;;;5051692;28;20418;-86
2021/05/28 07:56:11;;;;;;;2.85;0.90;;;11.00;85.10;;;;;;5039706;28;20403;-89
2021/05/28 07:58:40;;;;;;;1.90;1.00;;;11.00;84.70;;;;;;5045258;28;20495;-92
2021/05/28 08:01:07;;;;;;;2.50;0.88;;;11.00;85.20;;;;;;5055731;28;20391;-91
2021/05/28 08:03:34;;;;;;;2.78;0.90;;;11.00;84.20;;;;;;5047094;28;20385;-85
2021/05/28 08:06:01;;;;;;;3.00;1.05;;;10.90;83.90;;;;;;5056005;28;20786;-88
2021/05/28 08:08:28;;;;;;;3.65;0.90;;;11.00;84.40;;;;;;5050546;28;20415;-86
2021/05/28 08:10:56;;;;;;;2.00;0.95;;;11.00;84.30;;;;;;5053016;28;20383;-86
2021/05/28 08:13:23;;;;;;;3.58;0.90;;;11.00;83.40;;;;;;5047962;28;20432;-86
2021/05/28 08:15:52;;;;;;;3.58;0.88;;;11.00;81.00;;;;;;5058267;28;20430;-83
2021/05/28 08:18:19;;;;;;;1.38;1.25;;;11.00;80.80;;;;;;5056762;28;20412;-85
2021/05/28 08:20:47;;;;;;;1.90;1.10;;;11.10;78.60;;;;;;5056866;28;20887;-86
2021/05/28 08:23:14;;;;;;;3.20;1.52;;;11.10;80.60;;;;;;5053906;28;20388;-86
2021/05/28 08:25:41;;;;;;;4.30;1.20;;;11.00;80.70;;;;;;5052560;28;20458;-86
2021/05/28 08:28:08;;;;;;;3.05;1.00;;;10.90;79.70;;;;;;5053933;28;20395;-87
2021/05/28 08:30:35;;;;;;;2.63;1.40;;;10.90;79.30;;;;;;5026617;28;20395;-89
2021/05/28 08:33:02;;;;;;;3.88;1.02;;;10.80;79.60;;;;;;5039703;28;20387;-89
2021/05/28 08:35:29;;;;;;;3.00;1.00;;;10.90;79.60;;;;;;5053257;28;20410;-91
2021/05/28 08:37:56;;;;;;;1.90;1.10;;;10.80;79.50;;;;;;5035070;28;20397;-87
2021/05/28 08:40:25;;;;;;;3.58;0.88;;;10.80;79.90;;;;;;5040186;28;20385;-87
2021/05/28 08:42:52;;;;;;;2.63;0.85;;;10.90;77.90;;;;;;5024864;28;20405;-85
2021/05/28 08:45:19;;;;;;;2.60;0.80;;;11.00;78.80;;;;;;5046102;28;20901;-90
2021/05/28 08:47:46;;;;;;;2.47;1.00;;;10.90;80.30;;;;;;5054812;28;20407;-87
2021/05/28 08:50:13;;;;;;;2.30;1.00;;;10.90;79.60;;;;;;5051292;28;20491;-84
2021/05/28 08:52:40;;;;;;;2.75;1.00;;;10.80;80.10;;;;;;5046585;28;20418;-84
2021/05/28 08:55:08;;;;;;;3.28;1.15;;;10.70;81.00;;;;;;5042795;28;20527;-83
2021/05/28 08:57:35;;;;;;;3.78;1.17;;;10.70;81.70;;;;;;5040760;28;20400;-85
2021/05/28 09:00:02;;;;;;;4.77;1.53;;;10.60;82.30;;;;;;5043624;28;20455;-84
2021/05/28 09:02:40;;;;;;;4.13;1.40;;;10.50;82.80;;;;;;5020299;28;21976;-86
2021/05/28 09:05:09;;;;;;;3.45;1.42;;;10.40;82.50;;;;;;5047946;28;20403;-84
2021/05/28 09:07:37;;;;;;;3.38;1.50;;;10.40;84.00;;;;;;5044549;28;20411;-85
2021/05/28 09:10:33;;;;;;;2.90;1.40;;;10.20;83.90;;;;;;5044572;28;20511;-86
2021/05/28 09:13:11;;;;;;;2.35;1.15;;;10.20;85.20;;;;;;5036917;28;20395;-87
2021/05/28 09:15:39;;;;;;;3.35;1.50;;;10.10;84.30;;;;;;5053583;28;20864;-86
2021/05/28 09:18:06;;;;;;;3.25;1.50;;;10.10;86.30;;;;;;5044199;28;20385;-91
2021/05/28 09:20:34;;;;;;;3.65;1.35;;;10.00;86.90;;;;;;5052941;28;20764;-91
2021/05/28 09:23:15;;;;;;;2.85;1.40;;;10.00;87.30;;;;;;5054518;28;20397;-88
2021/05/28 09:25:55;;;;;;;4.97;1.60;;;9.90;88.20;;;;;;5054514;28;20412;-92
2021/05/28 09:28:23;;;;;;;4.70;1.40;;;9.80;88.60;;;;;;5050614;28;20380;-86
2021/05/28 09:30:59;;;;;;;2.47;1.08;;;9.70;87.30;;;;;;5056328;28;20789;-90
2021/05/28 09:33:45;;;;;;;2.40;1.30;;;9.70;88.20;;;;;;5061082;28;20463;-88
2021/05/28 09:36:14;;;;;;;2.20;1.15;;;9.70;89.20;;;;;;5057341;28;20395;-89
2021/05/28 09:38:53;;;;;;;3.10;1.30;;;9.80;89.10;;;;;;5055168;28;20542;-90
2021/05/28 09:41:45;;;;;;;2.70;1.10;;;9.80;88.30;;;;;;5054512;28;20932;-85
2021/05/28 09:44:32;;;;;;;4.30;1.20;;;9.80;90.30;;;;;;5052350;28;20391;-92
2021/05/28 09:47:14;;;;;;;4.63;1.30;;;9.70;90.20;;;;;;5038199;28;20408;-89
2021/05/28 09:49:46;;;;;;;4.50;1.30;;;9.60;89.70;;;;;;5045910;28;20380;-90
2021/05/28 09:52:18;;;;;;;4.97;1.40;;;9.60;90.30;;;;;;5050333;28;20391;-92
2021/05/28 09:55:05;;;;;;;6.05;1.58;;;9.60;90.60;;;;;;5057674;28;20392;-92
2021/05/28 09:57:45;;;;;;;2.13;1.20;;;9.60;90.90;;;;;;5043926;28;20415;-90
2021/05/28 10:00:36;;;;;;;4.70;1.60;;;9.60;90.90;;;;;;5045356;28;20736;-89
2021/05/28 10:03:26;;;;;;;2.58;1.00;;;9.50;90.90;;;;;;5031576;28;20460;-89
2021/05/28 10:05:58;;;;;;;3.08;1.10;;;9.50;91.20;;;;;;5051890;28;20381;-87
2021/05/28 10:08:27;;;;;;;6.00;1.47;;;9.40;91.90;;;;;;5056327;28;20388;-90
2021/05/28 10:10:57;;;;;;;3.28;1.20;;;9.40;92.00;;;;;;5057119;28;20432;-89
2021/05/28 10:13:28;;;;;;;3.13;1.80;;;9.20;92.20;;;;;;5053452;28;20391;-91
2021/05/28 10:15:58;;;;;;;3.70;1.42;;;9.20;93.20;;;;;;5052970;28;20734;-88
2021/05/28 10:18:25;;;;;;;2.22;1.10;;;9.20;92.60;;;;;;5051205;28;20392;-91
2021/05/28 10:20:54;;;;;;;4.03;1.52;;;9.20;92.90;;;;;;5059763;28;20395;-88
2021/05/28 10:23:24;;;;;;;4.78;1.38;;;9.10;93.40;;;;;;5049482;28;20401;-91
2021/05/28 10:26:00;;;;;;;5.13;1.77;;;9.10;93.20;;;;;;5039869;28;20479;-87
2021/05/28 10:28:38;;;;;;;4.65;1.40;;;9.00;93.40;;;;;;5061184;28;20383;-85
2021/05/28 10:31:06;;;;;;;4.25;1.30;;;9.10;93.20;;;;;;5021038;28;20741;-87
2021/05/28 10:33:34;;;;;;;5.13;1.58;;;9.20;93.40;;;;;;5034764;28;20399;-88
2021/05/28 10:36:07;;;;;;;8.35;1.48;;;9.10;93.60;;;;;;5062014;28;20399;-88
2021/05/28 10:38:41;;;;;;;1.97;1.20;;;9.10;94.40;;;;;;5051781;28;20898;-87
2021/05/28 10:41:08;;;;;;;2.30;1.38;;;9.00;94.70;;;;;;5056328;28;20388;-87
2021/05/28 10:43:50;;;;;;;5.47;1.30;;;8.90;95.30;;;;;;5053775;28;20392;-86
2021/05/28 10:46:18;;;;;;;1.90;1.00;;;8.80;95.80;;;;;;5047511;28;20395;-91
2021/05/28 10:48:45;;;;;;;2.35;1.25;;;8.90;95.80;;;;;;5058632;28;21284;-89
2021/05/28 10:51:16;;;;;;;2.83;1.30;;;8.80;95.90;;;;;;5056076;28;20388;-88
2021/05/28 10:53:53;;;;;;;3.63;1.40;;;8.80;95.90;;;;;;5058557;28;20399;-88
2021/05/28 10:56:25;;;;;;;3.47;1.35;;;8.70;95.70;;;;;;5039064;28;20403;-92
2021/05/28 10:59:15;;;;;;;2.97;1.40;;;8.70;95.90;;;;;;5047632;28;20404;-89
2021/05/28 11:01:51;;;;;;;2.17;1.30;;;8.70;96.20;;;;;;5050404;28;20388;-88
2021/05/28 11:04:23;;;;;;;3.20;1.50;;;8.70;95.70;;;;;;5034158;28;20406;-89
2021/05/28 11:06:57;;;;;;;2.83;1.40;;;8.70;95.50;;;;;;5040487;28;20408;-89
2021/05/28 11:09:40;;;;;;;3.10;1.30;;;8.70;96.40;;;;;;5058795;28;20431;-91
2021/05/28 11:12:14;;;;;;;2.83;1.27;;;8.70;96.30;;;;;;5059169;28;20465;-89
2021/05/28 11:15:08;;;;;;;3.53;1.25;;;8.70;96.50;;;;;;5060056;28;20357;-88
2021/05/28 11:17:57;;;;;;;3.90;1.40;;;8.70;96.80;;;;;;5040812;28;20396;-88
2021/05/28 11:20:27;;;;;;;4.10;1.45;;;8.70;97.20;;;;;;5046495;28;20433;-90
2021/05/28 11:22:54;;;;;;;4.53;1.83;;;8.80;97.00;;;;;;5055785;28;20405;-87
2021/05/28 11:25:24;;;;;;;2.70;1.40;;;8.70;97.10;;;;;;5054263;28;20464;-89
2021/05/28 11:28:03;;;;;;;4.05;1.58;;;8.80;96.90;;;;;;5056510;28;20404;-89
2021/05/28 11:30:43;;;;;;;1.95;1.30;;;8.80;97.20;;;;;;5056098;28;20379;-87
2021/05/28 11:33:43;;;;;;;5.30;1.50;;;8.70;97.70;;;;;;5055277;28;20407;-85
2021/05/28 11:36:34;;;;;;;2.78;1.38;;;8.70;97.70;;;;;;5056966;28;20376;-85
2021/05/28 11:39:09;;;;;;;3.67;1.38;;;8.70;97.90;;;;;;5055120;28;20828;-90
2021/05/28 11:42:03;;;;;;;3.00;1.52;;;8.70;97.80;;;;;;5055607;28;20368;-87
2021/05/28 11:44:33;;;;;;;4.40;1.67;;;8.70;98.50;;;;;;5043243;28;20375;-88
2021/05/28 11:47:02;;;;;;;2.97;1.45;;;8.70;98.70;;;;;;5058329;28;20400;-89
2021/05/28 11:49:29;;;;;;;2.70;1.25;;;8.70;99.20;;;;;;5057640;28;21863;-90
2021/05/28 11:52:07;;;;;;;5.07;1.63;;;8.60;99.00;;;;;;5040995;28;20746;-85
2021/05/28 11:54:37;;;;;;;4.43;1.30;;;8.60;99.40;;;;;;5057146;28;20420;-88
2021/05/28 11:57:06;;;;;;;2.92;1.20;;;8.60;98.80;;;;;;5055776;28;20512;-88
2021/05/28 11:59:51;;;;;;;6.80;1.57;;;8.60;99.10;;;;;;5054799;28;20451;-92
2021/05/28 12:02:49;;;;;;;2.42;1.15;;;8.60;99.60;;;;;;5044823;28;20489;-89
2021/05/28 12:08:25;;;;;;;5.37;1.50;;;8.70;99.20;;;;;;5032579;23;20518;-86
2021/05/28 12:10:55;;;;;;;4.45;1.17;;;8.70;98.80;;;;;;5019561;28;20391;-88
2021/05/28 12:13:25;;;;;;;3.38;1.23;;;8.60;98.80;;;;;;5019958;28;20402;-87
2021/05/28 12:15:55;;;;;;;2.90;1.00;;;8.70;99.30;;;;;;5019676;28;20387;-90
2021/05/28 12:18:28;;;;;;;4.57;1.30;;;8.70;99.50;;;;;;5019290;28;20465;-89
2021/05/28 12:21:20;;;;;;;4.70;1.30;;;8.60;99.20;;;;;;5017475;28;20383;-87
2021/05/28 12:23:48;;;;;;;3.08;1.20;;;8.70;99.30;;;;;;5002698;28;20441;-90
2021/05/28 12:26:19;;;;;;;4.03;1.33;;;8.70;99.40;;;;;;5020107;28;20425;-89
2021/05/28 12:28:49;;;;;;;4.03;1.40;;;8.70;99.30;;;;;;5020711;28;20459;-89
2021/05/28 12:31:16;;;;;;;6.60;1.30;;;8.70;99.50;;;;;;5020660;28;20402;-89
2021/05/28 12:33:49;;;;;;;5.05;1.50;;;8.70;99.90;;;;;;5019379;28;20402;-90
2021/05/28 12:36:18;;;;;;;4.07;1.30;;;8.60;99.80;;;;;;5020533;28;20974;-89
2021/05/28 12:38:47;;;;;;;4.53;1.42;;;8.60;98.60;;;;;;5025610;28;20458;-87
2021/05/28 12:41:17;;;;;;;5.55;1.30;;;8.60;99.40;;;;;;5020001;28;20399;-89
2021/05/28 12:43:47;;;;;;;4.47;1.65;;;8.60;99.50;;;;;;5017319;28;20754;-92
2021/05/28 12:46:18;;;;;;;6.10;1.30;;;8.60;99.90;;;;;;5018673;28;20395;-93
2021/05/28 12:48:53;;;;;;;5.47;1.20;;;8.60;99.50;;;;;;5018406;28;20399;-90
2021/05/28 12:51:40;;;;;;;3.85;1.20;;;8.60;99.10;;;;;;5005095;28;20736;-90
2021/05/28 12:54:28;;;;;;;4.55;1.20;;;8.70;98.30;;;;;;4999843;28;20391;-89
2021/05/28 12:56:59;;;;;;;4.65;1.20;;;8.80;98.20;;;;;;5018708;28;20483;-91
2021/05/28 12:59:31;;;;;;;3.95;1.20;;;8.90;97.80;;;;;;5020061;28;20387;-92
2021/05/28 13:02:11;;;;;;;4.55;1.27;;;8.90;97.90;;;;;;5019311;28;20390;-92
2021/05/28 13:04:56;;;;;;;3.38;1.00;;;8.90;97.40;;;;;;5019314;28;20399;-88
2021/05/28 13:07:44;;;;;;;3.77;1.17;;;8.80;97.70;;;;;;5012302;28;20446;-90
2021/05/28 13:10:23;;;;;;;6.38;1.25;;;8.80;98.30;;;;;;5017446;28;20407;-89